Utica, Kentucky
Current Conditions -  °F | °C
As of 5:56 PM on Wednesday 26 Nov 2014 (Local Time) from KOWB Reporting Station
Light Rain Light Rain  
Wind Chill: 34°   Ceiling: 2800
Heat Index: 40°   Visibility: 7mi
Dew Point: 32°   Wind: 9mph
Humidity: 73%   Direction: 250°WSW
Pressure: 30.05"   Gusts: NA
Location:  37.6°N, 86.98°W
Report Text: KOWB 262356Z 25008KT 7SM -RA SCT024 BKN028 04/00 A3005 RMK AO2 53010 60000 T00440000 10061 20027 RAB45 P0000 SLP180
Loading
Personal Weather Stations






























Interactive Weather Map New forecast layout! Learn more

10-Day Weather Forecast

Advertisements
Track Severe Weather on mobile